Relevés horaires Bierset (Belgique)


Relevés horaires à Bierset - Samedi 10 Juin 2023
Heure UTC1 Température [°C] Vent [km/h] Hum. [%] Pres.4 [hPa] Visi. [Km] Nébu. [octa] Préc.5 [mm] Cond.
2m. Res. Ros. Dir.2 Vit. Moy. Raf.3
23:00 21.6 21.6 10.4 E 3.7 5.6 16.7 49 1014.7(0.8/3h) 30 0/8 -- --
22:00 22.3 22.3 11.4 ENE 5.6 9.3 14.8 50 1014.4(1.0/3h) 30 1/8 -- --
21:00 22.9 22.9 11.4 NE 7.4 13.0 18.5 48 1014.3(1.3/3h) 30 1/8 -- --
20:00 23.7 23.7 11.7 NE 7.4 7.4 11.1 47 1013.7(1.0/3h) 30 1/8 -- --
19:00 25.3 25.3 11.9 NE 9.3 13.0 18.5 43 1013.2(0.5/3h) 30 1/8 -- --
18:00 27.1 27.1 11.2 NE 11.1 13.0 24.1 37 1012.7(-0.2/3h) 30 1/8 0/12h
--
17:00 28.8 28.8 8.2 ENE 9.3 9.3 24.1 27 1012.3(-0.7/3h) 30 1/8 -- --
16:00 29.1 29.1 9.3 E 9.3 11.1 18.5 29 1012.4(-0.8/3h) 30 1/8 -- --
15:00 28.3 28.3 8.0 ENE 11.1 11.1 22.2 28 1012.8(-0.6/3h) 30 1/8 -- --
14:00 29.1 29.1 9.5 E 9.3 11.1 16.7 29 1013(-0.6/3h) 30 1/8 -- --
13:00 28.0 28.0 8.3 E 11.1 11.1 18.5 29 1013.3(-0.6/3h) 30 3/8 -- --
12:00 28.8 28.8 8.4 E 9.3 13.0 20.4 28 1013.4(-0.6/3h) 30 3/8 0/6h
--
11:00 27.9 27.9 10.6 ENE 13.0 13.0 20.4 34 1013.7(-0.5/3h) 30 2/8 -- --
10:00 27.3 27.3 12.7 NNE 9.3 9.3 13.0 40 1013.9(0.0/3h) 30 2/8 -- --
09:00 26.9 26.9 11.6 SE 5.6 7.4 14.8 39 1014.2(0.3/3h) 30 1/8 -- --
08:00 25.0 25.0 11.1 ESE 5.6 5.6 14.8 42 1014.4(0.6/3h) 30 0/8 -- --
07:00 22.8 22.8 11.0 ESE 5.6 7.4 9.3 47 1014.3(0.5/3h) 30 0/8 -- --
06:00 21.3 21.3 10.6 E 3.7 5.6 16.7 50 1014.3(0.7/3h) 30 0/8 0/12h
--
05:00 19.8 19.8 10.0 ESE 5.6 5.6 9.3 53 1014.1(0.5/3h) 30 0/8 -- --
04:00 19.2 19.2 9.6 ESE 5.6 5.6 7.4 54 1014(0.4/3h) 30 0/8 -- --
03:00 18.2 18.2 9.9 ESE 3.7 5.6 16.7 58 1013.8(0.1/3h) 30 0/8 -- --
02:00 19.7 19.7 9.7 ESE 5.6 5.6 14.8 52 1013.6(0.1/3h) 30 0/8 -- --
01:00 19.9 19.9 9.4 E 5.6 5.6 9.3 51 1013.5(0.1/3h) 30 0/8 -- --
00:00 20.2 20.2 9.5 ENE 5.6 9.3 20.4 50 1013.5(0.4/3h) 30 1/8 0/6h
0/24h
--

1 Coordinated Universal Time. Actuellement il est 02:00 locale et 00:00 UTC.

2 Le vent souffle depuis la direction indiquée vers la direction oposée.

3 Les rafales max. sont disponible 40 min après l'heure du relevé.

4 Pour les stations d'altitude (plus de 600m) le géopotentiel du niveau le plus proche de la pression obligatoire est indiqué.

5 Les stations disposant d'un diffuseur peuvent indiquer "trace". Cela signifie que des précipitations ont touchés le sol mais que la quantité est inférieure à 0.1 mm.

Récapitulatif de la journée
Température [°C] Vent [km/h] Ensoleillement4 [h] Precipitations totale5 [mm] Pression [Hpa]
Min1 Max.2 Moy.3 Max. Min Max.
18.1 29.9 8.9 24.1 0 h 0 min 0 1012.3 1014.7

1 Température minimale relevée entre 18:00 UTC la veille et 18:00 UTC le jour donné.

2 Température maximale relevée entre 06:00 UTC le jour donné et 06:00 UTC le lendemain.

3 Vent moyen de la journée basé sur les relevés horaires.

4 Ensoleillement en heures relevé entre 06:00 UTC la veille et 06:00 UTC le jour donné.

5 Précipitations totales tombées entre 06:00 UTC la jour donné et 06:00 UTC le lendemain.

Graphiques horaires